createdAt,value
2022-12-13T00:01:55.516Z,9.10
2022-12-13T00:04:24.841Z,8.90
2022-12-13T00:06:54.293Z,9.20
2022-12-13T00:09:23.503Z,8.70
2022-12-13T00:11:52.536Z,10.00
2022-12-13T00:14:21.101Z,7.60
2022-12-13T00:16:50.261Z,10.30
2022-12-13T00:19:18.839Z,9.80
2022-12-13T00:21:46.987Z,10.10
2022-12-13T00:24:15.184Z,9.30
2022-12-13T00:26:43.444Z,7.60
2022-12-13T00:29:12.417Z,6.60
2022-12-13T00:34:29.637Z,9.60
2022-12-13T00:37:01.297Z,9.70
2022-12-13T00:39:29.584Z,8.30
2022-12-13T00:41:58.298Z,9.50
2022-12-13T00:44:26.902Z,10.70
2022-12-13T00:46:55.044Z,10.10
2022-12-13T00:49:23.339Z,9.20
2022-12-13T00:51:51.476Z,11.10
2022-12-13T00:54:19.530Z,11.40
2022-12-13T00:56:48.030Z,9.60
2022-12-13T00:59:16.007Z,8.90
2022-12-13T01:01:45.113Z,11.50
2022-12-13T01:04:13.451Z,10.70
2022-12-13T01:06:44.940Z,11.40
2022-12-13T01:09:21.723Z,10.70
2022-12-13T01:11:50.744Z,11.60
2022-12-13T01:14:19.076Z,12.00
2022-12-13T01:16:47.370Z,13.00
2022-12-13T01:19:17.207Z,11.70
2022-12-13T01:21:45.474Z,12.80
2022-12-13T01:24:14.021Z,12.60
2022-12-13T01:26:42.227Z,13.20
2022-12-13T01:29:11.715Z,12.30
2022-12-13T01:31:41.919Z,12.90
2022-12-13T01:34:15.210Z,12.40
2022-12-13T01:36:45.468Z,10.90
2022-12-13T01:39:15.861Z,11.20
2022-12-13T01:41:46.748Z,9.90
2022-12-13T01:44:52.212Z,10.70
2022-12-13T01:47:35.159Z,9.90
2022-12-13T01:50:09.828Z,9.80
2022-12-13T01:52:38.785Z,9.80
2022-12-13T01:55:08.637Z,9.10
2022-12-13T01:57:45.487Z,9.60
2022-12-13T02:00:16.037Z,9.90
2022-12-13T02:02:45.026Z,9.40
2022-12-13T02:05:25.650Z,10.80
2022-12-13T02:07:54.053Z,10.40
2022-12-13T02:10:22.163Z,10.40
2022-12-13T02:12:50.704Z,11.20
2022-12-13T02:15:20.602Z,10.10
2022-12-13T02:17:56.724Z,10.60
2022-12-13T02:20:56.141Z,10.40
2022-12-13T02:23:47.662Z,10.00
2022-12-13T02:26:28.131Z,9.50
2022-12-13T02:29:30.095Z,10.40
2022-12-13T02:32:21.160Z,9.60
2022-12-13T02:34:58.360Z,9.30
2022-12-13T02:37:46.041Z,9.80
2022-12-13T02:40:23.672Z,8.50
2022-12-13T02:42:51.573Z,8.90
2022-12-13T02:45:51.271Z,8.60
2022-12-13T02:48:26.373Z,9.20
2022-12-13T02:53:24.635Z,8.70
2022-12-13T02:55:53.129Z,9.40
2022-12-13T02:58:40.904Z,10.10
2022-12-13T03:01:28.415Z,9.60
2022-12-13T03:04:03.695Z,9.70
2022-12-13T03:07:07.324Z,9.80
2022-12-13T03:09:38.728Z,10.10
2022-12-13T03:12:55.309Z,9.90
2022-12-13T03:15:34.622Z,9.50
2022-12-13T03:18:20.263Z,10.20
2022-12-13T03:20:51.192Z,9.00
2022-12-13T03:23:21.166Z,9.40
2022-12-13T03:25:52.555Z,8.70
2022-12-13T03:28:21.147Z,10.10
2022-12-13T03:30:49.455Z,10.20
2022-12-13T03:33:17.964Z,9.30
2022-12-13T03:35:46.622Z,9.50
2022-12-13T03:38:21.324Z,10.20
2022-12-13T03:40:57.590Z,10.30
2022-12-13T03:43:26.598Z,9.70
2022-12-13T03:45:55.357Z,9.20
2022-12-13T03:48:24.437Z,8.90
2022-12-13T03:50:53.960Z,8.90
2022-12-13T03:53:33.100Z,8.70
2022-12-13T03:56:05.367Z,8.00
2022-12-13T03:58:37.598Z,9.10
2022-12-13T04:01:08.320Z,9.10
2022-12-13T04:03:38.253Z,9.60
2022-12-13T04:06:07.361Z,9.90
2022-12-13T04:08:36.080Z,9.60
2022-12-13T04:11:24.935Z,9.70
2022-12-13T04:13:54.907Z,10.20
2022-12-13T04:16:23.670Z,10.20
2022-12-13T04:18:51.881Z,9.80
2022-12-13T04:21:19.898Z,10.40
2022-12-13T04:23:48.183Z,10.50
2022-12-13T04:26:16.319Z,9.10
2022-12-13T04:28:47.053Z,9.80
2022-12-13T04:31:19.072Z,9.40
2022-12-13T04:33:47.482Z,9.80
2022-12-13T04:36:30.993Z,11.00
2022-12-13T04:39:22.487Z,9.50
2022-12-13T04:41:52.711Z,11.00
2022-12-13T04:44:29.126Z,10.80
2022-12-13T04:47:01.220Z,11.00
2022-12-13T04:49:30.770Z,11.60
2022-12-13T04:52:01.318Z,10.60
2022-12-13T04:54:35.776Z,10.90
2022-12-13T04:57:11.384Z,10.70
2022-12-13T04:59:40.286Z,11.50
2022-12-13T05:02:09.180Z,11.00
2022-12-13T05:04:37.309Z,10.70
2022-12-13T05:07:05.488Z,11.10
2022-12-13T05:09:33.533Z,11.20
2022-12-13T05:12:02.248Z,12.10
2022-12-13T05:14:31.758Z,11.90
2022-12-13T05:17:03.038Z,12.90
2022-12-13T05:19:31.847Z,12.00
2022-12-13T05:22:01.843Z,13.60
2022-12-13T05:24:33.336Z,12.10
2022-12-13T05:27:01.965Z,12.70
2022-12-13T05:29:50.181Z,12.20
2022-12-13T05:32:18.288Z,10.70
2022-12-13T05:34:46.803Z,11.00
2022-12-13T05:37:15.103Z,10.10
2022-12-13T05:39:43.423Z,9.90
2022-12-13T05:42:11.677Z,11.50
2022-12-13T05:44:39.831Z,11.20
2022-12-13T05:47:07.922Z,11.70
2022-12-13T05:49:36.089Z,12.50
2022-12-13T05:52:19.446Z,12.80
2022-12-13T05:54:47.939Z,11.70
2022-12-13T05:57:16.774Z,11.50
2022-12-13T05:59:45.365Z,11.80
2022-12-13T06:02:19.735Z,13.20
2022-12-13T06:04:49.571Z,9.40
2022-12-13T06:07:17.731Z,11.00
2022-12-13T06:09:46.092Z,10.50
2022-12-13T06:12:31.521Z,11.20
2022-12-13T06:15:01.809Z,10.60
2022-12-13T06:17:35.490Z,11.70
2022-12-13T06:20:23.354Z,13.00
2022-12-13T06:22:53.980Z,12.70
2022-12-13T06:25:30.510Z,10.90
2022-12-13T06:28:00.749Z,11.80
2022-12-13T06:30:30.922Z,12.00
2022-12-13T06:32:59.576Z,12.20
2022-12-13T06:35:30.147Z,12.40
2022-12-13T06:38:01.649Z,11.80
2022-12-13T06:40:30.738Z,11.40
2022-12-13T06:42:59.316Z,12.30
2022-12-13T06:45:28.197Z,10.90
2022-12-13T06:47:57.050Z,10.10
2022-12-13T06:50:25.723Z,9.70
2022-12-13T06:52:53.810Z,11.80
2022-12-13T06:55:23.601Z,10.80
2022-12-13T06:57:52.788Z,10.30
2022-12-13T07:00:21.727Z,10.30
2022-12-13T07:02:55.747Z,10.90
2022-12-13T07:05:25.265Z,12.70
2022-12-13T07:07:54.684Z,12.60
2022-12-13T07:10:23.144Z,12.40
2022-12-13T07:12:51.474Z,12.60
2022-12-13T07:15:19.597Z,11.90
2022-12-13T07:17:51.946Z,12.70
2022-12-13T07:20:20.344Z,12.80
2022-12-13T07:22:58.254Z,13.10
2022-12-13T07:25:29.462Z,13.40
2022-12-13T07:28:06.006Z,12.80
2022-12-13T07:30:41.386Z,12.60
2022-12-13T07:33:10.694Z,13.80
2022-12-13T07:35:39.413Z,12.50
2022-12-13T07:38:09.087Z,13.20
2022-12-13T07:40:40.508Z,11.80
2022-12-13T07:43:09.861Z,13.70
2022-12-13T07:45:39.185Z,14.00
2022-12-13T07:48:08.761Z,14.50
2022-12-13T07:50:37.991Z,15.40
2022-12-13T07:53:08.644Z,11.80
2022-12-13T07:55:38.479Z,16.00
2022-12-13T07:58:12.574Z,13.70
2022-12-13T08:00:46.497Z,16.30
2022-12-13T08:03:24.708Z,15.40
2022-12-13T08:06:03.050Z,17.50
2022-12-13T08:08:32.269Z,17.60
2022-12-13T08:11:05.260Z,18.90
2022-12-13T08:13:34.373Z,17.70
2022-12-13T08:16:25.793Z,13.70
2022-12-13T08:19:01.825Z,17.60
2022-12-13T08:21:53.883Z,16.60
2022-12-13T08:24:24.892Z,19.30
2022-12-13T08:27:03.292Z,18.90
2022-12-13T08:29:35.791Z,12.80
2022-12-13T08:32:07.084Z,14.10
2022-12-13T08:34:35.780Z,16.60
2022-12-13T08:37:05.122Z,14.10
2022-12-13T08:39:36.402Z,15.20
2022-12-13T08:42:20.152Z,13.90
2022-12-13T08:44:51.027Z,9.50
2022-12-13T08:47:26.774Z,6.20
2022-12-13T08:50:02.043Z,3.60
2022-12-13T08:52:40.082Z,10.30
2022-12-13T08:55:12.635Z,11.50
2022-12-13T08:57:42.449Z,11.00
2022-12-13T09:00:14.948Z,9.80
2022-12-13T09:02:43.802Z,10.40
2022-12-13T09:05:13.335Z,10.30
2022-12-13T09:08:23.568Z,10.10
2022-12-13T09:11:11.170Z,10.40
2022-12-13T09:13:51.426Z,10.60
2022-12-13T09:16:24.856Z,11.10
2022-12-13T09:18:55.303Z,9.50
2022-12-13T09:21:31.477Z,11.70
2022-12-13T09:24:01.976Z,11.70
2022-12-13T09:26:38.091Z,10.70
2022-12-13T09:29:10.667Z,12.30
2022-12-13T09:31:41.214Z,12.30
2022-12-13T09:34:11.790Z,9.60
2022-12-13T09:36:40.950Z,11.20
2022-12-13T09:39:12.364Z,11.00
2022-12-13T09:41:51.231Z,10.40
2022-12-13T09:44:32.153Z,11.80
2022-12-13T09:47:13.684Z,11.50
2022-12-13T09:49:53.033Z,10.60
2022-12-13T09:52:25.105Z,10.90
2022-12-13T09:54:57.113Z,9.70
2022-12-13T09:57:31.577Z,9.90
2022-12-13T10:00:08.690Z,7.90
2022-12-13T10:02:44.550Z,11.60
2022-12-13T10:05:22.166Z,11.20
2022-12-13T10:07:55.956Z,11.90
2022-12-13T10:10:26.298Z,12.60
2022-12-13T10:13:09.028Z,12.50
2022-12-13T10:15:41.875Z,10.80
2022-12-13T10:18:15.724Z,11.50
2022-12-13T10:20:44.623Z,11.30
2022-12-13T10:23:35.642Z,8.60
2022-12-13T10:26:03.861Z,10.90
2022-12-13T10:28:34.060Z,10.80
2022-12-13T10:31:03.652Z,12.20
2022-12-13T10:33:49.036Z,11.30
2022-12-13T10:36:33.211Z,10.00
2022-12-13T10:39:03.275Z,10.20
2022-12-13T10:41:39.197Z,9.40
2022-12-13T10:44:13.466Z,9.50
2022-12-13T10:46:51.563Z,10.00
2022-12-13T10:49:24.318Z,10.70
2022-12-13T10:51:54.444Z,9.50
2022-12-13T10:54:38.918Z,9.40
2022-12-13T10:57:18.919Z,10.70
2022-12-13T10:59:49.547Z,9.20
2022-12-13T11:02:32.074Z,9.70
2022-12-13T11:05:23.061Z,7.00
2022-12-13T11:07:52.504Z,9.10
2022-12-13T11:10:27.999Z,9.60
2022-12-13T11:13:03.888Z,10.40
2022-12-13T11:15:35.231Z,9.20
2022-12-13T11:18:19.272Z,7.90
2022-12-13T11:21:03.405Z,8.80
2022-12-13T11:23:40.310Z,8.90
2022-12-13T11:26:15.994Z,8.60
2022-12-13T11:29:05.266Z,7.80
2022-12-13T11:31:59.035Z,8.70
2022-12-13T11:34:35.715Z,8.20
2022-12-13T11:37:28.952Z,8.50
2022-12-13T11:40:17.615Z,8.10
2022-12-13T11:42:56.363Z,8.80
2022-12-13T11:45:39.333Z,7.90
2022-12-13T11:48:22.613Z,8.40
2022-12-13T11:50:55.383Z,8.30
2022-12-13T11:53:34.653Z,8.50
2022-12-13T11:56:13.223Z,8.10
2022-12-13T11:59:04.264Z,7.80
2022-12-13T12:01:43.519Z,8.40
2022-12-13T12:04:30.144Z,7.80
2022-12-13T12:07:32.507Z,7.70
2022-12-13T12:10:18.781Z,7.90
2022-12-13T12:12:53.877Z,7.70
2022-12-13T12:16:08.573Z,7.40
2022-12-13T12:18:37.153Z,8.60
2022-12-13T12:22:04.827Z,7.50
2022-12-13T12:24:39.496Z,8.30
2022-12-13T12:27:32.149Z,8.10
2022-12-13T12:30:07.605Z,7.20
2022-12-13T12:32:50.467Z,7.90
2022-12-13T12:35:29.863Z,8.20
2022-12-13T12:38:16.759Z,7.50
2022-12-13T12:41:15.622Z,7.50
2022-12-13T12:43:43.863Z,8.50
2022-12-13T12:47:08.718Z,7.60
2022-12-13T12:49:54.189Z,8.40
2022-12-13T12:53:03.194Z,7.70
2022-12-13T12:55:53.893Z,7.80
2022-12-13T12:58:31.347Z,7.90
2022-12-13T13:01:43.644Z,7.60
2022-12-13T13:04:22.319Z,7.80
2022-12-13T13:07:01.349Z,7.50
2022-12-13T13:09:31.915Z,7.80
2022-12-13T13:12:29.087Z,6.90
2022-12-13T13:14:54.046Z,8.00
2022-12-13T13:17:22.492Z,6.60
2022-12-13T13:20:07.892Z,7.90
2022-12-13T13:22:43.516Z,7.30
2022-12-13T13:25:26.328Z,7.50
2022-12-13T13:28:16.741Z,7.60
2022-12-13T13:31:09.267Z,7.30
2022-12-13T13:33:58.146Z,7.70
2022-12-13T13:36:53.200Z,7.50
2022-12-13T13:39:57.683Z,6.90
2022-12-13T13:42:30.209Z,7.10
2022-12-13T13:45:26.513Z,7.50
2022-12-13T13:48:14.976Z,7.50
2022-12-13T13:51:11.768Z,7.20
2022-12-13T13:54:18.564Z,8.00
2022-12-13T13:57:20.239Z,7.60
2022-12-13T14:02:58.995Z,7.30
2022-12-13T14:05:52.988Z,6.50
2022-12-13T14:09:08.845Z,7.40
2022-12-13T14:11:47.284Z,6.70
2022-12-13T14:14:41.066Z,7.50
2022-12-13T14:17:47.295Z,7.10
2022-12-13T14:20:37.980Z,6.90
2022-12-13T14:23:34.301Z,6.90
2022-12-13T14:28:50.777Z,7.30
2022-12-13T14:31:30.815Z,7.00
2022-12-13T14:34:00.758Z,7.20
2022-12-13T14:36:35.848Z,7.80
2022-12-13T14:39:24.795Z,8.20
2022-12-13T14:41:57.357Z,7.90
2022-12-13T14:44:36.765Z,7.60
2022-12-13T14:47:07.676Z,8.10
2022-12-13T14:49:48.862Z,7.50
2022-12-13T14:52:33.885Z,6.40
2022-12-13T14:55:06.046Z,8.20
2022-12-13T14:57:35.596Z,7.70
2022-12-13T15:00:27.070Z,7.90
2022-12-13T15:02:58.554Z,8.80
2022-12-13T15:05:32.913Z,8.70
2022-12-13T15:08:10.900Z,8.00
2022-12-13T15:10:48.429Z,9.90
2022-12-13T15:13:48.520Z,9.10
2022-12-13T15:16:28.337Z,7.80
2022-12-13T15:19:29.432Z,8.00
2022-12-13T15:22:08.889Z,8.60
2022-12-13T15:24:48.851Z,9.10
2022-12-13T15:27:30.722Z,8.30
2022-12-13T15:29:59.289Z,8.40
2022-12-13T15:32:28.936Z,8.30
2022-12-13T15:34:58.503Z,8.90
2022-12-13T15:37:32.057Z,9.50
2022-12-13T15:40:07.631Z,10.10
2022-12-13T15:42:39.682Z,10.50
2022-12-13T15:45:20.592Z,10.00
2022-12-13T15:47:50.237Z,10.00
2022-12-13T15:50:45.425Z,7.80
2022-12-13T15:53:29.353Z,8.60
2022-12-13T15:55:59.654Z,7.90
2022-12-13T15:58:35.441Z,8.30
2022-12-13T16:01:07.722Z,8.40
2022-12-13T16:03:43.580Z,7.50
2022-12-13T16:06:19.079Z,8.00
2022-12-13T16:08:51.554Z,9.00
2022-12-13T16:11:48.058Z,8.20
2022-12-13T16:14:32.213Z,7.50
2022-12-13T16:17:20.055Z,6.20
2022-12-13T16:19:49.172Z,9.60
2022-12-13T16:22:21.790Z,8.00
2022-12-13T16:24:52.580Z,8.70
2022-12-13T16:27:21.846Z,8.90
2022-12-13T16:29:50.488Z,10.70
2022-12-13T16:32:19.906Z,9.80
2022-12-13T16:34:48.514Z,7.40
2022-12-13T16:37:25.424Z,10.10
2022-12-13T16:39:55.963Z,9.90
2022-12-13T16:42:27.276Z,12.10
2022-12-13T16:45:32.280Z,11.80
2022-12-13T16:47:49.736Z,10.20
2022-12-13T16:50:21.134Z,10.30
2022-12-13T16:52:49.970Z,9.60
2022-12-13T16:55:19.282Z,9.20
2022-12-13T16:58:02.706Z,7.20
2022-12-13T17:00:31.928Z,10.30
2022-12-13T17:03:00.823Z,9.30
2022-12-13T17:05:31.446Z,11.60
2022-12-13T17:08:01.824Z,10.30
2022-12-13T17:10:31.383Z,10.90
2022-12-13T17:13:00.444Z,11.00
2022-12-13T17:15:30.361Z,9.90
2022-12-13T17:17:58.879Z,11.80
2022-12-13T17:20:27.613Z,11.20
2022-12-13T17:22:56.192Z,8.40
2022-12-13T17:25:24.722Z,11.40
2022-12-13T17:27:53.473Z,11.50
2022-12-13T17:30:21.767Z,10.60
2022-12-13T17:32:50.423Z,11.60
2022-12-13T17:35:19.606Z,6.90
2022-12-13T17:37:48.167Z,12.40
2022-12-13T17:40:17.964Z,12.50
2022-12-13T17:42:49.654Z,12.60
2022-12-13T17:45:19.714Z,13.20
2022-12-13T17:47:47.995Z,11.70
2022-12-13T17:50:16.473Z,12.80
2022-12-13T17:52:44.735Z,12.00
2022-12-13T17:55:18.167Z,10.90
2022-12-13T17:57:47.154Z,12.10
2022-12-13T18:00:16.364Z,8.50
2022-12-13T18:02:55.456Z,14.80
2022-12-13T18:05:26.472Z,16.50
2022-12-13T18:07:54.876Z,17.80
2022-12-13T18:10:29.507Z,18.30
2022-12-13T18:12:59.049Z,16.60
2022-12-13T18:15:27.706Z,16.10
2022-12-13T18:18:11.410Z,17.40
2022-12-13T18:20:40.153Z,19.20
2022-12-13T18:23:08.583Z,16.00
2022-12-13T18:25:37.436Z,17.30
2022-12-13T18:28:09.452Z,15.00
2022-12-13T18:30:38.854Z,18.00
2022-12-13T18:33:07.804Z,15.90
2022-12-13T18:35:36.640Z,16.10
2022-12-13T18:38:05.283Z,16.40
2022-12-13T18:40:33.589Z,19.30
2022-12-13T18:43:02.254Z,16.90
2022-12-13T18:45:30.736Z,14.20
2022-12-13T18:47:59.807Z,13.30
2022-12-13T18:50:28.156Z,16.40
2022-12-13T18:52:57.409Z,18.40
2022-12-13T18:55:25.985Z,17.60
2022-12-13T18:57:54.476Z,16.30
2022-12-13T19:00:24.352Z,16.00
2022-12-13T19:02:52.731Z,16.30
2022-12-13T19:05:23.111Z,15.10
2022-12-13T19:07:51.371Z,19.80
2022-12-13T19:10:19.844Z,18.60
2022-12-13T19:12:48.248Z,18.20
2022-12-13T19:15:17.195Z,20.10
2022-12-13T19:17:46.812Z,19.50
2022-12-13T19:20:15.951Z,14.80
2022-12-13T19:22:44.513Z,17.40
2022-12-13T19:25:13.733Z,18.40
2022-12-13T19:27:44.920Z,18.60
2022-12-13T19:30:13.359Z,19.70
2022-12-13T19:32:42.525Z,19.60
2022-12-13T19:35:16.817Z,18.70
2022-12-13T19:37:45.194Z,21.00
2022-12-13T19:40:13.836Z,14.40
2022-12-13T19:42:42.423Z,18.90
2022-12-13T19:45:11.319Z,19.40
2022-12-13T19:47:40.308Z,20.00
2022-12-13T19:50:08.980Z,19.10
2022-12-13T19:52:39.029Z,18.40
2022-12-13T19:55:07.561Z,18.20
2022-12-13T19:57:36.004Z,16.70
2022-12-13T20:00:05.596Z,17.10
2022-12-13T20:02:34.082Z,14.70
2022-12-13T20:05:02.452Z,14.40
2022-12-13T20:07:30.647Z,15.70
2022-12-13T20:09:59.537Z,16.80
2022-12-13T20:12:30.021Z,16.40
2022-12-13T20:15:02.826Z,14.10
2022-12-13T20:17:31.762Z,16.80
2022-12-13T20:20:00.381Z,13.90
2022-12-13T20:22:28.821Z,17.00
2022-12-13T20:24:57.303Z,15.90
2022-12-13T20:27:27.147Z,15.50
2022-12-13T20:29:55.916Z,16.10
2022-12-13T20:32:24.536Z,19.50
2022-12-13T20:34:55.023Z,19.00
2022-12-13T20:37:27.683Z,24.10
2022-12-13T20:39:56.092Z,24.20
2022-12-13T20:42:24.737Z,17.60
2022-12-13T20:44:53.200Z,20.30
2022-12-13T20:47:21.875Z,21.80
2022-12-13T20:49:50.597Z,20.90
2022-12-13T20:52:19.304Z,15.20
2022-12-13T20:54:47.778Z,17.90
2022-12-13T20:57:16.029Z,16.10
2022-12-13T20:59:45.272Z,13.50
2022-12-13T21:02:14.329Z,18.80
2022-12-13T21:04:43.215Z,19.30
2022-12-13T21:07:12.355Z,17.90
2022-12-13T21:09:41.706Z,17.70
2022-12-13T21:12:11.003Z,16.70
2022-12-13T21:14:39.711Z,19.30
2022-12-13T21:17:10.026Z,19.30
2022-12-13T21:19:40.429Z,17.90
2022-12-13T21:22:08.938Z,19.10
2022-12-13T21:24:37.238Z,19.50
2022-12-13T21:27:06.850Z,19.70
2022-12-13T21:29:35.650Z,20.10
2022-12-13T21:32:04.928Z,22.80
2022-12-13T21:34:33.284Z,23.10
2022-12-13T21:37:01.678Z,20.20
2022-12-13T21:39:29.968Z,19.00
2022-12-13T21:41:58.769Z,20.30
2022-12-13T21:44:28.917Z,20.60
2022-12-13T21:47:15.100Z,22.00
2022-12-13T21:49:48.634Z,17.60
2022-12-13T21:52:17.879Z,16.40
2022-12-13T21:54:46.268Z,15.20
2022-12-13T21:57:32.756Z,16.20
2022-12-13T22:00:01.165Z,18.30
2022-12-13T22:02:29.954Z,15.40
2022-12-13T22:04:59.092Z,13.80
2022-12-13T22:07:33.248Z,15.80
2022-12-13T22:10:02.374Z,14.80
2022-12-13T22:12:34.989Z,15.60
2022-12-13T22:15:05.785Z,12.10
2022-12-13T22:17:35.986Z,19.00
2022-12-13T22:20:06.657Z,21.30
2022-12-13T22:22:35.080Z,17.30
2022-12-13T22:25:03.920Z,15.10
2022-12-13T22:27:32.164Z,15.90
2022-12-13T22:30:00.431Z,20.60
2022-12-13T22:32:31.318Z,20.80
2022-12-13T22:34:59.515Z,20.30
2022-12-13T22:37:27.687Z,19.80
2022-12-13T22:39:55.657Z,19.70
2022-12-13T22:42:24.227Z,22.00
2022-12-13T22:44:52.389Z,18.90
2022-12-13T22:47:20.563Z,20.20
2022-12-13T22:49:49.256Z,17.70
2022-12-13T22:52:17.780Z,20.80
2022-12-13T22:54:45.863Z,18.70
2022-12-13T22:57:14.273Z,17.30
2022-12-13T22:59:42.629Z,16.70
2022-12-13T23:02:11.598Z,18.50
2022-12-13T23:04:39.889Z,22.50
2022-12-13T23:07:08.000Z,21.80
2022-12-13T23:09:36.421Z,21.90
2022-12-13T23:12:37.253Z,20.40
2022-12-13T23:15:06.242Z,19.00
2022-12-13T23:17:34.279Z,20.70
2022-12-13T23:20:04.642Z,18.50
2022-12-13T23:22:32.749Z,19.70
2022-12-13T23:25:00.894Z,19.10
2022-12-13T23:27:29.071Z,17.80
2022-12-13T23:29:57.286Z,18.50
2022-12-13T23:32:25.503Z,18.40
2022-12-13T23:34:53.604Z,19.50
2022-12-13T23:37:22.315Z,19.20
2022-12-13T23:39:50.374Z,19.60
2022-12-13T23:42:18.647Z,19.40
2022-12-13T23:44:46.796Z,20.20
2022-12-13T23:47:14.792Z,20.50
2022-12-13T23:49:42.878Z,20.50
2022-12-13T23:52:11.115Z,20.30
2022-12-13T23:54:39.247Z,16.90
2022-12-13T23:57:07.765Z,18.30
2022-12-13T23:59:36.207Z,18.50
